sensor_id;sensor_type;location;lat;lon;timestamp;pressure;altitude;pressure_sealevel;temperature;humidity
66430;BME280;53242;51.694;10.006;2023-06-24T00:00:01;100405.09;;;16.77;82.42
66430;BME280;53242;51.694;10.006;2023-06-24T00:02:23;100411.25;;;16.71;82.83
66430;BME280;53242;51.694;10.006;2023-06-24T00:04:46;100409.00;;;16.74;82.55
66430;BME280;53242;51.694;10.006;2023-06-24T00:07:08;100406.69;;;16.78;81.97
66430;BME280;53242;51.694;10.006;2023-06-24T00:09:31;100412.13;;;16.58;82.80
66430;BME280;53242;51.694;10.006;2023-06-24T00:11:54;100415.81;;;16.57;82.52
66430;BME280;53242;51.694;10.006;2023-06-24T00:14:18;100417.13;;;16.41;83.17
66430;BME280;53242;51.694;10.006;2023-06-24T00:16:43;100412.78;;;16.47;82.41
66430;BME280;53242;51.694;10.006;2023-06-24T00:19:05;100416.66;;;16.51;82.17
66430;BME280;53242;51.694;10.006;2023-06-24T00:21:30;100412.19;;;16.44;82.23
66430;BME280;53242;51.694;10.006;2023-06-24T00:23:52;100417.09;;;16.48;82.34
66430;BME280;53242;51.694;10.006;2023-06-24T00:26:15;100426.75;;;16.35;82.74
66430;BME280;53242;51.694;10.006;2023-06-24T00:28:38;100419.22;;;16.25;82.72
66430;BME280;53242;51.694;10.006;2023-06-24T00:31:01;100416.94;;;16.36;82.53
66430;BME280;53242;51.694;10.006;2023-06-24T00:33:24;100415.88;;;16.37;82.75
66430;BME280;53242;51.694;10.006;2023-06-24T00:35:47;100421.69;;;16.20;83.13
66430;BME280;53242;51.694;10.006;2023-06-24T00:38:11;100425.75;;;16.30;82.68
66430;BME280;53242;51.694;10.006;2023-06-24T00:40:33;100428.63;;;16.35;82.49
66430;BME280;53242;51.694;10.006;2023-06-24T00:42:56;100428.84;;;16.33;82.22
66430;BME280;53242;51.694;10.006;2023-06-24T00:45:19;100428.66;;;16.15;83.25
66430;BME280;53242;51.694;10.006;2023-06-24T00:47:42;100436.88;;;16.13;82.49
66430;BME280;53242;51.694;10.006;2023-06-24T00:50:05;100434.16;;;16.26;81.66
66430;BME280;53242;51.694;10.006;2023-06-24T00:52:28;100438.06;;;16.24;81.70
66430;BME280;53242;51.694;10.006;2023-06-24T00:54:50;100442.78;;;16.22;81.72
66430;BME280;53242;51.694;10.006;2023-06-24T00:57:12;100444.81;;;16.26;81.26
66430;BME280;53242;51.694;10.006;2023-06-24T00:59:36;100442.56;;;16.23;81.74
66430;BME280;53242;51.694;10.006;2023-06-24T01:01:59;100449.94;;;16.21;81.88
66430;BME280;53242;51.694;10.006;2023-06-24T01:04:31;100450.78;;;16.08;82.29
66430;BME280;53242;51.694;10.006;2023-06-24T01:06:57;100444.03;;;16.19;81.91
66430;BME280;53242;51.694;10.006;2023-06-24T01:09:20;100445.06;;;16.11;82.20
66430;BME280;53242;51.694;10.006;2023-06-24T01:11:43;100451.59;;;16.16;81.99
66430;BME280;53242;51.694;10.006;2023-06-24T01:14:05;100448.13;;;16.15;81.57
66430;BME280;53242;51.694;10.006;2023-06-24T01:19:06;100441.75;;;16.16;81.54
66430;BME280;53242;51.694;10.006;2023-06-24T01:22:00;100436.44;;;16.16;81.69
66430;BME280;53242;51.694;10.006;2023-06-24T01:28:00;100452.22;;;16.11;81.79
66430;BME280;53242;51.694;10.006;2023-06-24T01:32:43;100448.75;;;16.04;82.02
66430;BME280;53242;51.694;10.006;2023-06-24T01:35:10;100446.72;;;15.99;81.40
66430;BME280;53242;51.694;10.006;2023-06-24T01:37:42;100452.06;;;15.86;82.29
66430;BME280;53242;51.694;10.006;2023-06-24T01:40:18;100449.59;;;15.91;82.15
66430;BME280;53242;51.694;10.006;2023-06-24T01:42:44;100447.75;;;15.91;82.38
66430;BME280;53242;51.694;10.006;2023-06-24T01:45:12;100450.81;;;16.02;81.59
66430;BME280;53242;51.694;10.006;2023-06-24T01:47:36;100443.44;;;15.90;82.26
66430;BME280;53242;51.694;10.006;2023-06-24T01:50:01;100445.06;;;15.98;81.29
66430;BME280;53242;51.694;10.006;2023-06-24T01:52:26;100444.47;;;15.83;81.74
66430;BME280;53242;51.694;10.006;2023-06-24T01:54:52;100442.59;;;15.56;83.06
66430;BME280;53242;51.694;10.006;2023-06-24T01:57:17;100445.88;;;15.65;82.58
66430;BME280;53242;51.694;10.006;2023-06-24T01:59:44;100444.22;;;15.51;83.33
66430;BME280;53242;51.694;10.006;2023-06-24T02:02:08;100445.69;;;15.60;82.73
66430;BME280;53242;51.694;10.006;2023-06-24T02:04:31;100447.72;;;15.44;83.23
66430;BME280;53242;51.694;10.006;2023-06-24T02:06:54;100448.09;;;15.35;84.20
66430;BME280;53242;51.694;10.006;2023-06-24T02:09:17;100448.94;;;15.49;83.03
66430;BME280;53242;51.694;10.006;2023-06-24T02:11:41;100440.13;;;15.48;82.62
66430;BME280;53242;51.694;10.006;2023-06-24T02:14:05;100444.22;;;15.37;82.50
66430;BME280;53242;51.694;10.006;2023-06-24T02:16:28;100440.97;;;15.49;82.28
66430;BME280;53242;51.694;10.006;2023-06-24T02:18:52;100441.97;;;15.48;82.41
66430;BME280;53242;51.694;10.006;2023-06-24T02:21:17;100437.66;;;15.40;82.72
66430;BME280;53242;51.694;10.006;2023-06-24T02:23:42;100435.63;;;15.42;82.95
66430;BME280;53242;51.694;10.006;2023-06-24T02:26:05;100433.41;;;15.52;82.73
66430;BME280;53242;51.694;10.006;2023-06-24T02:28:29;100431.34;;;15.48;82.89
66430;BME280;53242;51.694;10.006;2023-06-24T02:30:54;100428.69;;;15.41;83.49
66430;BME280;53242;51.694;10.006;2023-06-24T02:33:16;100438.09;;;15.57;83.05
66430;BME280;53242;51.694;10.006;2023-06-24T02:35:40;100436.25;;;15.51;83.35
66430;BME280;53242;51.694;10.006;2023-06-24T02:38:04;100436.44;;;15.42;83.70
66430;BME280;53242;51.694;10.006;2023-06-24T02:40:27;100436.06;;;15.52;83.32
66430;BME280;53242;51.694;10.006;2023-06-24T02:42:49;100434.81;;;15.61;82.59
66430;BME280;53242;51.694;10.006;2023-06-24T02:45:12;100434.00;;;15.48;83.42
66430;BME280;53242;51.694;10.006;2023-06-24T02:47:35;100447.72;;;15.58;82.96
66430;BME280;53242;51.694;10.006;2023-06-24T02:49:59;100447.94;;;15.56;82.76
66430;BME280;53242;51.694;10.006;2023-06-24T02:52:21;100447.69;;;15.38;83.23
66430;BME280;53242;51.694;10.006;2023-06-24T02:54:44;100443.63;;;15.62;82.24
66430;BME280;53242;51.694;10.006;2023-06-24T02:57:36;100446.25;;;15.35;83.00
66430;BME280;53242;51.694;10.006;2023-06-24T03:00:17;100449.31;;;15.32;83.38
66430;BME280;53242;51.694;10.006;2023-06-24T03:02:58;100446.66;;;15.32;83.29
66430;BME280;53242;51.694;10.006;2023-06-24T03:05:21;100444.59;;;15.27;83.86
66430;BME280;53242;51.694;10.006;2023-06-24T03:07:49;100448.09;;;15.28;83.78
66430;BME280;53242;51.694;10.006;2023-06-24T03:10:12;100457.72;;;15.29;83.68
66430;BME280;53242;51.694;10.006;2023-06-24T03:12:35;100455.03;;;15.22;84.00
66430;BME280;53242;51.694;10.006;2023-06-24T03:14:58;100460.97;;;15.31;83.87
66430;BME280;53242;51.694;10.006;2023-06-24T03:17:22;100463.63;;;15.31;84.09
66430;BME280;53242;51.694;10.006;2023-06-24T03:19:47;100459.94;;;15.25;84.45
66430;BME280;53242;51.694;10.006;2023-06-24T03:22:10;100464.66;;;15.23;84.55
66430;BME280;53242;51.694;10.006;2023-06-24T03:24:32;100468.78;;;15.46;83.56
66430;BME280;53242;51.694;10.006;2023-06-24T03:26:55;100465.91;;;15.54;83.22
66430;BME280;53242;51.694;10.006;2023-06-24T03:29:25;100463.03;;;15.42;83.43
66430;BME280;53242;51.694;10.006;2023-06-24T03:31:56;100466.94;;;15.40;83.84
66430;BME280;53242;51.694;10.006;2023-06-24T03:34:21;100476.97;;;15.44;83.91
66430;BME280;53242;51.694;10.006;2023-06-24T03:36:43;100473.31;;;15.59;83.52
66430;BME280;53242;51.694;10.006;2023-06-24T03:39:06;100467.78;;;15.60;82.74
66430;BME280;53242;51.694;10.006;2023-06-24T03:41:29;100467.56;;;15.62;82.69
66430;BME280;53242;51.694;10.006;2023-06-24T03:43:51;100466.94;;;15.53;83.21
66430;BME280;53242;51.694;10.006;2023-06-24T03:46:15;100478.41;;;15.54;83.29
66430;BME280;53242;51.694;10.006;2023-06-24T03:48:37;100471.66;;;15.44;83.68
66430;BME280;53242;51.694;10.006;2023-06-24T03:51:00;100476.78;;;15.46;83.82
66430;BME280;53242;51.694;10.006;2023-06-24T03:53:24;100477.16;;;15.36;84.22
66430;BME280;53242;51.694;10.006;2023-06-24T03:55:47;100477.16;;;15.43;84.05
66430;BME280;53242;51.694;10.006;2023-06-24T03:58:11;100476.56;;;15.48;83.72
66430;BME280;53242;51.694;10.006;2023-06-24T04:00:34;100485.38;;;15.61;83.07
66430;BME280;53242;51.694;10.006;2023-06-24T04:03:01;100479.03;;;15.69;82.55
66430;BME280;53242;51.694;10.006;2023-06-24T04:05:23;100483.53;;;15.62;82.77
66430;BME280;53242;51.694;10.006;2023-06-24T04:07:47;100482.50;;;15.50;83.19
66430;BME280;53242;51.694;10.006;2023-06-24T04:10:10;100484.75;;;15.59;83.37
66430;BME280;53242;51.694;10.006;2023-06-24T04:12:32;100490.06;;;15.59;83.45
66430;BME280;53242;51.694;10.006;2023-06-24T04:14:55;100485.78;;;15.58;83.57
66430;BME280;53242;51.694;10.006;2023-06-24T04:17:17;100485.97;;;15.57;83.31
66430;BME280;53242;51.694;10.006;2023-06-24T04:19:40;100482.94;;;15.73;82.64
66430;BME280;53242;51.694;10.006;2023-06-24T04:22:03;100482.72;;;15.75;82.61
66430;BME280;53242;51.694;10.006;2023-06-24T04:24:25;100490.28;;;15.71;83.00
66430;BME280;53242;51.694;10.006;2023-06-24T04:26:48;100478.00;;;15.43;84.26
66430;BME280;53242;51.694;10.006;2023-06-24T04:29:10;100475.34;;;15.57;84.24
66430;BME280;53242;51.694;10.006;2023-06-24T04:31:33;100480.69;;;15.70;83.41
66430;BME280;53242;51.694;10.006;2023-06-24T04:33:56;100486.41;;;15.67;83.17
66430;BME280;53242;51.694;10.006;2023-06-24T04:36:18;100480.69;;;15.70;83.30
66430;BME280;53242;51.694;10.006;2023-06-24T04:38:41;100482.50;;;15.76;83.48
66430;BME280;53242;51.694;10.006;2023-06-24T04:41:03;100486.59;;;15.66;84.06
66430;BME280;53242;51.694;10.006;2023-06-24T04:43:26;100481.53;;;16.04;82.85
66430;BME280;53242;51.694;10.006;2023-06-24T04:45:50;100486.97;;;16.50;80.98
66430;BME280;53242;51.694;10.006;2023-06-24T04:48:12;100485.56;;;17.06;78.94
66430;BME280;53242;51.694;10.006;2023-06-24T04:50:35;100487.03;;;17.40;77.75
66430;BME280;53242;51.694;10.006;2023-06-24T04:52:57;100492.38;;;17.66;76.82
66430;BME280;53242;51.694;10.006;2023-06-24T04:55:21;100496.09;;;17.90;75.77
66430;BME280;53242;51.694;10.006;2023-06-24T04:57:44;100496.22;;;18.02;74.92
66430;BME280;53242;51.694;10.006;2023-06-24T05:00:07;100494.47;;;18.14;75.12
66430;BME280;53242;51.694;10.006;2023-06-24T05:02:30;100494.59;;;18.45;74.37
66430;BME280;53242;51.694;10.006;2023-06-24T05:04:52;100499.19;;;18.37;74.40
66430;BME280;53242;51.694;10.006;2023-06-24T05:07:15;100495.31;;;18.89;72.41
66430;BME280;53242;51.694;10.006;2023-06-24T05:09:37;100490.31;;;19.11;71.26
66430;BME280;53242;51.694;10.006;2023-06-24T05:12:00;100494.69;;;18.94;72.33
66430;BME280;53242;51.694;10.006;2023-06-24T05:14:22;100493.59;;;19.13;71.79
66430;BME280;53242;51.694;10.006;2023-06-24T05:16:44;100493.59;;;19.13;71.84
66430;BME280;53242;51.694;10.006;2023-06-24T05:19:07;100502.66;;;19.12;72.42
66430;BME280;53242;51.694;10.006;2023-06-24T05:21:30;100494.06;;;19.52;71.00
66430;BME280;53242;51.694;10.006;2023-06-24T05:23:52;100499.09;;;19.61;70.14
66430;BME280;53242;51.694;10.006;2023-06-24T05:26:14;100497.03;;;19.75;69.89
66430;BME280;53242;51.694;10.006;2023-06-24T05:28:37;100498.75;;;19.57;70.26
66430;BME280;53242;51.694;10.006;2023-06-24T05:30:59;100506.75;;;19.87;69.37
66430;BME280;53242;51.694;10.006;2023-06-24T05:33:22;100502.28;;;19.81;69.45
66430;BME280;53242;51.694;10.006;2023-06-24T05:35:44;100512.94;;;20.00;69.58
66430;BME280;53242;51.694;10.006;2023-06-24T05:38:07;100507.81;;;19.98;69.45
66430;BME280;53242;51.694;10.006;2023-06-24T05:40:29;100507.44;;;20.07;69.22
66430;BME280;53242;51.694;10.006;2023-06-24T05:42:51;100504.66;;;20.01;69.42
66430;BME280;53242;51.694;10.006;2023-06-24T05:45:14;100509.44;;;20.11;69.26
66430;BME280;53242;51.694;10.006;2023-06-24T05:47:37;100512.00;;;20.18;69.16
66430;BME280;53242;51.694;10.006;2023-06-24T05:50:00;100509.09;;;20.08;69.98
66430;BME280;53242;51.694;10.006;2023-06-24T05:52:22;100506.75;;;20.35;69.32
66430;BME280;53242;51.694;10.006;2023-06-24T05:54:44;100513.38;;;20.32;69.63
66430;BME280;53242;51.694;10.006;2023-06-24T05:57:07;100517.25;;;20.36;69.63
66430;BME280;53242;51.694;10.006;2023-06-24T05:59:29;100515.94;;;20.51;69.17
66430;BME280;53242;51.694;10.006;2023-06-24T06:01:52;100520.97;;;20.47;69.13
66430;BME280;53242;51.694;10.006;2023-06-24T06:04:14;100513.84;;;20.41;68.87
66430;BME280;53242;51.694;10.006;2023-06-24T06:06:36;100522.94;;;20.52;68.64
66430;BME280;53242;51.694;10.006;2023-06-24T06:08:59;100517.59;;;20.52;68.56
66430;BME280;53242;51.694;10.006;2023-06-24T06:11:21;100524.09;;;20.32;69.01
66430;BME280;53242;51.694;10.006;2023-06-24T06:13:44;100522.94;;;20.28;68.55
66430;BME280;53242;51.694;10.006;2023-06-24T06:16:06;100530.41;;;20.50;68.24
66430;BME280;53242;51.694;10.006;2023-06-24T06:18:29;100529.34;;;20.51;68.22
66430;BME280;53242;51.694;10.006;2023-06-24T06:20:52;100532.50;;;20.60;68.00
66430;BME280;53242;51.694;10.006;2023-06-24T06:23:15;100528.63;;;20.79;67.81
66430;BME280;53242;51.694;10.006;2023-06-24T06:25:38;100527.94;;;20.72;67.82
66430;BME280;53242;51.694;10.006;2023-06-24T06:28:00;100528.19;;;20.47;68.55
66430;BME280;53242;51.694;10.006;2023-06-24T06:30:23;100533.31;;;20.25;69.20
66430;BME280;53242;51.694;10.006;2023-06-24T06:32:45;100530.41;;;20.50;68.17
66430;BME280;53242;51.694;10.006;2023-06-24T06:35:08;100527.59;;;20.57;67.82
66430;BME280;53242;51.694;10.006;2023-06-24T06:37:30;100525.25;;;20.60;67.25
66430;BME280;53242;51.694;10.006;2023-06-24T06:39:52;100518.97;;;20.66;67.05
66430;BME280;53242;51.694;10.006;2023-06-24T06:42:15;100517.66;;;20.81;66.67
66430;BME280;53242;51.694;10.006;2023-06-24T06:44:38;100521.03;;;20.88;66.42
66430;BME280;53242;51.694;10.006;2023-06-24T06:47:00;100524.78;;;20.87;66.63
66430;BME280;53242;51.694;10.006;2023-06-24T06:49:23;100520.66;;;20.96;66.52
66430;BME280;53242;51.694;10.006;2023-06-24T06:51:45;100517.59;;;21.05;66.51
66430;BME280;53242;51.694;10.006;2023-06-24T06:54:07;100520.16;;;21.11;67.33
66430;BME280;53242;51.694;10.006;2023-06-24T06:56:30;100513.81;;;21.17;66.99
66430;BME280;53242;51.694;10.006;2023-06-24T06:58:52;100519.84;;;21.25;66.27
66430;BME280;53242;51.694;10.006;2023-06-24T07:01:15;100516.13;;;21.26;65.78
66430;BME280;53242;51.694;10.006;2023-06-24T07:03:37;100509.63;;;21.39;65.50
66430;BME280;53242;51.694;10.006;2023-06-24T07:06:00;100513.88;;;21.34;65.30
66430;BME280;53242;51.694;10.006;2023-06-24T07:08:22;100513.22;;;21.44;65.22
66430;BME280;53242;51.694;10.006;2023-06-24T07:10:45;100509.31;;;21.52;63.72
66430;BME280;53242;51.694;10.006;2023-06-24T07:13:07;100515.06;;;21.27;62.75
66430;BME280;53242;51.694;10.006;2023-06-24T07:15:29;100504.16;;;21.33;62.47
66430;BME280;53242;51.694;10.006;2023-06-24T07:17:52;100510.75;;;21.26;63.96
66430;BME280;53242;51.694;10.006;2023-06-24T07:20:15;100512.91;;;21.41;63.89
66430;BME280;53242;51.694;10.006;2023-06-24T07:22:37;100509.31;;;21.64;63.02
66430;BME280;53242;51.694;10.006;2023-06-24T07:25:00;100507.91;;;21.61;62.50
66430;BME280;53242;51.694;10.006;2023-06-24T07:27:23;100509.91;;;21.54;62.82
66430;BME280;53242;51.694;10.006;2023-06-24T07:29:45;100501.41;;;21.74;62.74
66430;BME280;53242;51.694;10.006;2023-06-24T07:32:08;100508.09;;;21.72;63.71
66430;BME280;53242;51.694;10.006;2023-06-24T07:34:30;100504.66;;;21.76;62.71
66430;BME280;53242;51.694;10.006;2023-06-24T07:36:53;100506.63;;;21.81;61.88
66430;BME280;53242;51.694;10.006;2023-06-24T07:39:15;100506.91;;;21.67;62.26
66430;BME280;53242;51.694;10.006;2023-06-24T07:41:37;100502.13;;;21.87;60.29
66430;BME280;53242;51.694;10.006;2023-06-24T07:44:00;100504.19;;;21.50;60.68
66430;BME280;53242;51.694;10.006;2023-06-24T07:46:22;100503.56;;;22.11;60.10
66430;BME280;53242;51.694;10.006;2023-06-24T07:48:45;100504.94;;;22.14;59.87
66430;BME280;53242;51.694;10.006;2023-06-24T07:51:07;100503.34;;;21.62;59.98
66430;BME280;53242;51.694;10.006;2023-06-24T07:53:29;100504.31;;;22.07;59.29
66430;BME280;53242;51.694;10.006;2023-06-24T07:55:52;100503.16;;;22.37;59.11
66430;BME280;53242;51.694;10.006;2023-06-24T07:58:14;100503.78;;;22.27;59.21
66430;BME280;53242;51.694;10.006;2023-06-24T08:00:37;100503.22;;;22.25;58.80
66430;BME280;53242;51.694;10.006;2023-06-24T08:02:59;100503.97;;;22.20;58.24
66430;BME280;53242;51.694;10.006;2023-06-24T08:05:22;100499.41;;;22.04;59.37
66430;BME280;53242;51.694;10.006;2023-06-24T08:07:44;100503.16;;;22.37;59.10
66430;BME280;53242;51.694;10.006;2023-06-24T08:10:07;100492.47;;;22.42;58.08
66430;BME280;53242;51.694;10.006;2023-06-24T08:12:29;100499.66;;;22.36;57.05
66430;BME280;53242;51.694;10.006;2023-06-24T08:14:52;100498.88;;;22.80;56.08
66430;BME280;53242;51.694;10.006;2023-06-24T08:17:14;100493.66;;;22.51;58.17
66430;BME280;53242;51.694;10.006;2023-06-24T08:19:36;100503.78;;;22.88;57.80
66430;BME280;53242;51.694;10.006;2023-06-24T08:21:59;100499.03;;;22.51;58.48
66430;BME280;53242;51.694;10.006;2023-06-24T08:24:21;100494.97;;;23.15;57.62
66430;BME280;53242;51.694;10.006;2023-06-24T08:26:44;100504.94;;;23.20;58.36
66430;BME280;53242;51.694;10.006;2023-06-24T08:29:06;100500.13;;;23.22;57.72
66430;BME280;53242;51.694;10.006;2023-06-24T08:31:29;100504.34;;;23.40;57.49
66430;BME280;53242;51.694;10.006;2023-06-24T08:33:52;100505.88;;;23.30;57.60
66430;BME280;53242;51.694;10.006;2023-06-24T08:36:15;100510.34;;;23.20;58.57
66430;BME280;53242;51.694;10.006;2023-06-24T08:38:38;100509.72;;;23.12;58.33
66430;BME280;53242;51.694;10.006;2023-06-24T08:41:00;100503.34;;;23.46;56.17
66430;BME280;53242;51.694;10.006;2023-06-24T08:43:22;100508.22;;;23.22;56.34
66430;BME280;53242;51.694;10.006;2023-06-24T08:45:45;100508.78;;;23.02;57.18
66430;BME280;53242;51.694;10.006;2023-06-24T08:48:07;100501.84;;;22.83;57.26
66430;BME280;53242;51.694;10.006;2023-06-24T08:50:35;100504.59;;;23.11;56.21
66430;BME280;53242;51.694;10.006;2023-06-24T08:53:00;100501.38;;;23.14;56.36
66430;BME280;53242;51.694;10.006;2023-06-24T08:55:28;100499.03;;;23.18;55.17
66430;BME280;53242;51.694;10.006;2023-06-24T08:57:53;100502.78;;;22.94;57.43
66430;BME280;53242;51.694;10.006;2023-06-24T09:00:15;100502.00;;;22.99;55.60
66430;BME280;53242;51.694;10.006;2023-06-24T09:02:38;100500.59;;;23.41;55.01
66430;BME280;53242;51.694;10.006;2023-06-24T09:05:00;100510.31;;;23.42;55.10
66430;BME280;53242;51.694;10.006;2023-06-24T09:07:25;100500.13;;;23.49;55.10
66430;BME280;53242;51.694;10.006;2023-06-24T09:09:49;100500.34;;;23.42;56.29
66430;BME280;53242;51.694;10.006;2023-06-24T09:12:13;100499.16;;;23.33;55.07
66430;BME280;53242;51.694;10.006;2023-06-24T09:14:35;100506.59;;;23.53;55.35
66430;BME280;53242;51.694;10.006;2023-06-24T09:16:59;100499.53;;;23.42;54.15
66430;BME280;53242;51.694;10.006;2023-06-24T09:19:26;100500.28;;;23.70;53.51
66430;BME280;53242;51.694;10.006;2023-06-24T09:21:52;100499.22;;;23.71;53.46
66430;BME280;53242;51.694;10.006;2023-06-24T09:24:14;100492.19;;;23.70;53.17
66430;BME280;53242;51.694;10.006;2023-06-24T09:26:37;100488.44;;;23.71;53.56
66430;BME280;53242;51.694;10.006;2023-06-24T09:28:59;100488.97;;;24.05;54.47
66430;BME280;53242;51.694;10.006;2023-06-24T09:31:23;100494.22;;;24.27;53.31
66430;BME280;53242;51.694;10.006;2023-06-24T09:33:46;100493.09;;;24.18;52.33
66430;BME280;53242;51.694;10.006;2023-06-24T09:36:13;100481.91;;;23.94;52.78
66430;BME280;53242;51.694;10.006;2023-06-24T09:38:37;100482.38;;;23.86;53.73
66430;BME280;53242;51.694;10.006;2023-06-24T09:41:04;100478.94;;;23.95;52.35
66430;BME280;53242;51.694;10.006;2023-06-24T09:43:27;100486.22;;;23.95;52.69
66430;BME280;53242;51.694;10.006;2023-06-24T09:45:49;100489.72;;;23.95;52.29
66430;BME280;53242;51.694;10.006;2023-06-24T09:48:12;100488.47;;;24.13;51.77
66430;BME280;53242;51.694;10.006;2023-06-24T09:50:34;100481.13;;;23.99;51.99
66430;BME280;53242;51.694;10.006;2023-06-24T09:52:57;100485.56;;;24.15;51.78
66430;BME280;53242;51.694;10.006;2023-06-24T09:55:20;100480.31;;;24.46;51.82
66430;BME280;53242;51.694;10.006;2023-06-24T09:57:45;100476.81;;;24.51;51.58
66430;BME280;53242;51.694;10.006;2023-06-24T10:00:09;100477.81;;;24.34;52.52
66430;BME280;53242;51.694;10.006;2023-06-24T10:02:32;100473.59;;;24.54;54.43
66430;BME280;53242;51.694;10.006;2023-06-24T10:04:55;100470.66;;;24.60;53.59
66430;BME280;53242;51.694;10.006;2023-06-24T10:07:18;100471.94;;;24.42;53.51
66430;BME280;53242;51.694;10.006;2023-06-24T10:09:41;100458.84;;;24.67;53.35
66430;BME280;53242;51.694;10.006;2023-06-24T10:12:03;100461.00;;;24.75;52.24
66430;BME280;53242;51.694;10.006;2023-06-24T10:14:26;100459.91;;;24.66;51.69
66430;BME280;53242;51.694;10.006;2023-06-24T10:16:49;100460.69;;;24.66;51.61
66430;BME280;53242;51.694;10.006;2023-06-24T10:19:19;100451.19;;;24.58;51.09
66430;BME280;53242;51.694;10.006;2023-06-24T10:21:50;100448.84;;;24.67;51.55
66430;BME280;53242;51.694;10.006;2023-06-24T10:24:12;100449.44;;;24.79;52.57
66430;BME280;53242;51.694;10.006;2023-06-24T10:26:35;100442.16;;;24.95;52.41
66430;BME280;53242;51.694;10.006;2023-06-24T10:34:01;100447.66;;;24.42;51.86
66430;BME280;53242;51.694;10.006;2023-06-24T10:36:32;100439.97;;;24.77;51.34
66430;BME280;53242;51.694;10.006;2023-06-24T10:38:55;100436.50;;;25.18;51.79
66430;BME280;53242;51.694;10.006;2023-06-24T10:41:18;100435.69;;;25.02;51.72
66430;BME280;53242;51.694;10.006;2023-06-24T10:43:41;100435.41;;;25.08;52.15
66430;BME280;53242;51.694;10.006;2023-06-24T10:46:14;100438.69;;;25.10;52.66
66430;BME280;53242;51.694;10.006;2023-06-24T10:48:37;100423.59;;;25.35;52.11
66430;BME280;53242;51.694;10.006;2023-06-24T10:51:00;100417.91;;;25.52;52.63
66430;BME280;53242;51.694;10.006;2023-06-24T10:53:22;100423.81;;;25.80;51.53
66430;BME280;53242;51.694;10.006;2023-06-24T10:55:45;100418.44;;;25.44;51.32
66430;BME280;53242;51.694;10.006;2023-06-24T10:58:12;100423.84;;;25.49;50.93
66430;BME280;53242;51.694;10.006;2023-06-24T11:00:35;100418.94;;;25.00;51.46
66430;BME280;53242;51.694;10.006;2023-06-24T11:02:58;100421.13;;;25.03;51.24
66430;BME280;53242;51.694;10.006;2023-06-24T11:05:30;100414.94;;;25.38;51.73
66430;BME280;53242;51.694;10.006;2023-06-24T11:07:53;100419.22;;;25.29;50.74
66430;BME280;53242;51.694;10.006;2023-06-24T11:10:16;100416.78;;;25.02;50.32
66430;BME280;53242;51.694;10.006;2023-06-24T11:12:39;100415.97;;;25.32;49.47
66430;BME280;53242;51.694;10.006;2023-06-24T11:15:12;100413.84;;;25.55;50.42
66430;BME280;53242;51.694;10.006;2023-06-24T11:17:36;100411.66;;;25.67;49.40
66430;BME280;53242;51.694;10.006;2023-06-24T11:19:59;100406.44;;;25.97;47.96
66430;BME280;53242;51.694;10.006;2023-06-24T11:22:22;100394.59;;;25.77;48.47
66430;BME280;53242;51.694;10.006;2023-06-24T11:24:45;100402.38;;;25.94;49.40
66430;BME280;53242;51.694;10.006;2023-06-24T11:27:07;100396.16;;;25.99;48.56
66430;BME280;53242;51.694;10.006;2023-06-24T11:29:30;100389.38;;;26.17;49.20
66430;BME280;53242;51.694;10.006;2023-06-24T11:31:54;100396.34;;;26.33;49.02
66430;BME280;53242;51.694;10.006;2023-06-24T11:34:16;100397.78;;;26.10;49.99
66430;BME280;53242;51.694;10.006;2023-06-24T11:36:39;100387.69;;;26.26;49.21
66430;BME280;53242;51.694;10.006;2023-06-24T11:39:02;100390.91;;;26.38;48.29
66430;BME280;53242;51.694;10.006;2023-06-24T11:41:25;100389.66;;;26.10;47.48
66430;BME280;53242;51.694;10.006;2023-06-24T11:43:49;100387.47;;;26.12;47.56
66430;BME280;53242;51.694;10.006;2023-06-24T11:46:28;100384.25;;;26.10;45.96
66430;BME280;53242;51.694;10.006;2023-06-24T11:49:05;100375.88;;;26.01;45.55
66430;BME280;53242;51.694;10.006;2023-06-24T11:51:28;100372.88;;;26.13;46.24
66430;BME280;53242;51.694;10.006;2023-06-24T11:53:51;100365.63;;;26.58;46.04
66430;BME280;53242;51.694;10.006;2023-06-24T11:56:13;100368.72;;;26.81;45.66
66430;BME280;53242;51.694;10.006;2023-06-24T11:58:35;100363.53;;;26.40;46.83
66430;BME280;53242;51.694;10.006;2023-06-24T12:00:58;100360.41;;;26.67;47.58
66430;BME280;53242;51.694;10.006;2023-06-24T12:03:22;100365.81;;;26.17;46.59
66430;BME280;53242;51.694;10.006;2023-06-24T12:05:47;100365.31;;;26.10;46.85
66430;BME280;53242;51.694;10.006;2023-06-24T12:08:10;100361.03;;;26.54;46.80
66430;BME280;53242;51.694;10.006;2023-06-24T12:10:33;100362.03;;;26.68;46.58
66430;BME280;53242;51.694;10.006;2023-06-24T12:12:56;100353.59;;;26.70;45.79
66430;BME280;53242;51.694;10.006;2023-06-24T12:15:19;100355.19;;;26.81;46.18
66430;BME280;53242;51.694;10.006;2023-06-24T12:17:42;100348.94;;;26.41;45.87
66430;BME280;53242;51.694;10.006;2023-06-24T12:20:05;100361.09;;;26.43;45.58
66430;BME280;53242;51.694;10.006;2023-06-24T12:22:28;100349.88;;;26.61;44.96
66430;BME280;53242;51.694;10.006;2023-06-24T12:24:50;100358.41;;;26.38;44.47
66430;BME280;53242;51.694;10.006;2023-06-24T12:27:12;100348.22;;;26.65;44.43
66430;BME280;53242;51.694;10.006;2023-06-24T12:29:35;100348.44;;;26.29;45.64
66430;BME280;53242;51.694;10.006;2023-06-24T12:31:57;100348.84;;;26.56;44.68
66430;BME280;53242;51.694;10.006;2023-06-24T12:34:20;100343.22;;;26.48;44.72